Flight Track Log - Related Links

Times and Time Zones

All times are in EDT time to prevent confusion due to time zone crossing. See the CDG4824 flight status page for this flight to view local times or setup timezone preferences in your user account.

Time Position Orientation Groundspeed Altitude Reporting Facility
EDT Latitude Longitude Course Direction KTS MPH feet Rate Location/Type
Tue 09:08:00 AM 26.3627 108.0632 99° East  Level Estimated
Tue 09:09:00 AM 26.3445 108.1892 99° East  Level Estimated
Tue 09:10:00 AM 26.3263 108.3152 99° East  Level Estimated
Tue 09:11:00 AM 26.3078 108.4412 99° East  Level Estimated
Tue 09:12:00 AM 26.2893 108.5671 99° East  Level Estimated
Tue 09:13:00 AM 26.2707 108.6929 99° East  Level Estimated
Tue 09:14:00 AM 26.2520 108.8188 99° East  Level Estimated
Tue 09:15:00 AM 26.2331 108.9446 99° East  Level Estimated
Tue 09:16:00 AM 26.2142 109.0703 100° East  Level Estimated
Tue 09:17:00 AM 26.1951 109.1960 100° East  Level Estimated
Tue 09:18:00 AM 26.1759 109.3217 100° East  Level Estimated
Tue 09:19:00 AM 26.1566 109.4473 100° East  Level Estimated
Tue 09:20:00 AM 26.1372 109.5729 100° East  Level Estimated
Tue 09:21:00 AM 26.1177 109.6985 100° East  Level Estimated
Tue 09:22:00 AM 26.0981 109.8240 100° East  Level Estimated
Tue 09:23:00 AM 26.0784 109.9494 100° East  Level Estimated
Tue 09:24:00 AM 26.0586 110.0749 100° East  Level Estimated
Tue 09:25:00 AM 26.0386 110.2002 100° East  Level Estimated
Tue 09:26:00 AM 26.0186 110.3256 100° East  Level Estimated
Tue 09:27:00 AM 25.9984 110.4509 100° East  Level Estimated
Tue 09:28:00 AM 25.9782 110.5761 100° East  Level Estimated
Tue 09:29:00 AM 25.9578 110.7013 100° East  Level Estimated
Tue 09:30:00 AM 25.9373 110.8265 100° East  Level Estimated
Tue 09:31:00 AM 25.9168 110.9516 100° East  Level Estimated
Tue 09:32:00 AM 25.8961 111.0766 100° East  Level Estimated
Tue 09:33:00 AM 25.8753 111.2017 100° East  Level Estimated
Tue 09:34:00 AM 25.8544 111.3267 101° East  Level Estimated
Tue 09:35:00 AM 25.8334 111.4516 101° East  Level Estimated
Tue 09:36:00 AM 25.8122 111.5765 101° East  Level Estimated
Tue 09:37:00 AM 25.7910 111.7013 101° East  Level Estimated
Tue 09:38:00 AM 25.7697 111.8261 101° East  Level Estimated
Tue 09:39:00 AM 25.7482 111.9509 101° East  Level Estimated
Tue 09:40:00 AM 25.7267 112.0756 101° East  Level Estimated
Tue 09:41:00 AM 25.7050 112.2003 101° East  Level Estimated
Tue 09:42:00 AM 25.6833 112.3249 101° East  Level Estimated
Tue 09:43:00 AM 25.6614 112.4495 101° East  Level Estimated
Tue 09:44:00 AM 25.6395 112.5740 101° East  Level Estimated
Tue 09:45:00 AM 25.6174 112.6985 101° East  Level Estimated
Tue 09:46:00 AM 25.5952 112.8230 101° East  Level Estimated
Tue 09:47:00 AM 25.5729 112.9474 101° East  Level Estimated
Tue 09:48:00 AM 25.5505 113.0717 101° East  Level Estimated
Tue 09:49:00 AM 25.5280 113.1960 101° East  Level Estimated
Tue 09:50:00 AM 25.5054 113.3203 101° East  Level Estimated
Tue 09:51:00 AM 25.4827 113.4445 101° East  Level Estimated
Tue 09:52:00 AM 25.4599 113.5686 101° East  Level Estimated
Tue 09:53:00 AM 25.4370 113.6927 102° East  Level Estimated
Tue 09:54:00 AM 25.4140 113.8168 102° East  Level Estimated
Tue 09:55:00 AM 25.3909 113.9408 102° East  Level Estimated
Tue 09:56:00 AM 25.3676 114.0648 102° East  Level Estimated
Tue 09:57:00 AM 25.3443 114.1887 102° East  Level Estimated
Tue 09:58:00 AM 25.3209 114.3126 102° East  Level Estimated
Tue 09:59:00 AM 25.2974 114.4364 102° East  Level Estimated
Tue 10:00:00 AM 25.2737 114.5602 102° East  Level Estimated
Tue 10:01:00 AM 25.2500 114.6840 102° East  Level Estimated
Tue 10:02:00 AM 25.2261 114.8076 102° East  Level Estimated
Tue 10:03:00 AM 25.2022 114.9313 102° East  Level Estimated
Tue 10:04:00 AM 25.1781 115.0549 102° East  Level Estimated
Tue 10:05:00 AM 25.1540 115.1784 102° East  Level Estimated
Tue 10:06:00 AM 25.1297 115.3019 102° East  Level Estimated
Tue 10:07:00 AM 25.1054 115.4253 102° East  Level Estimated
Tue 10:08:00 AM 25.0809 115.5487 102° East  Level Estimated
Tue 10:09:00 AM 25.0563 115.6721 102° East  Level Estimated
Tue 10:10:00 AM 25.0317 115.7953 102° East  Level Estimated
Tue 10:11:00 AM 25.0069 115.9186 102° East  Level Estimated
Tue 10:12:00 AM 24.9820 116.0418 103° East  Level Estimated
Tue 10:13:00 AM 24.9571 116.1649 103° East  Level Estimated
Tue 10:14:00 AM 24.9320 116.2880 103° East  Level Estimated
Tue 10:15:00 AM 24.9068 116.4111 103° East  Level Estimated
Tue 10:16:00 AM 24.8816 116.5340 103° East  Level Estimated
Tue 10:17:00 AM 24.8562 116.6570 103° East  Level Estimated
Tue 10:18:00 AM 24.8307 116.7799 103° East  Level Estimated
Tue 10:19:00 AM 24.8051 116.9027 103° East  Level Estimated
Tue 10:20:00 AM 24.7795 117.0255 103° East  Level Estimated
Tue 10:21:00 AM 24.7537 117.1482 103° East  Level Estimated
Tue 10:22:00 AM 24.7278 117.2709 103° East  Level Estimated
Tue 10:23:00 AM 24.7018 117.3936 103° East  Level Estimated
Tue 10:24:00 AM 24.6758 117.5162 103° East  Level Estimated
Tue 10:25:00 AM 24.6496 117.6387 103° East  Level Estimated
Tue 10:26:00 AM 24.6233 117.7612 103° East  Level Estimated
Tue 10:27:00 AM 24.5970 117.8836 103° East  Level Estimated
Tue 10:28:00 AM 24.5705 118.0060 103° East  Level Estimated
Tue 10:29:00 AM 24.5440 118.1277 103° East  Level Estimated
Tue 10:30:00 AM 24.5440 118.1277 North  Level Estimated
Tue 10:31:00 AM 24.5440 118.1277 North  Level Estimated
Tue 10:32:00 AM 24.5440 118.1277 North  Level Estimated
Tue 10:33:00 AM 24.5440 118.1277 North  Level Estimated
Tue 10:34:00 AM 24.5440 118.1277 North  Level Estimated
Tue 10:35:00 AM 24.5440 118.1277 North  Level Estimated
Tue 10:36:00 AM 24.5440 118.1277 North  Level Estimated
Tue 10:37:00 AM 24.5440 118.1277 North  Level Estimated
Tue 10:38:00 AM 24.5440 118.1277 North  Level Estimated
Tue 10:39:00 AM 24.5440 118.1277 North  Level Estimated
Tue 10:40:00 AM 24.5440 118.1277 North  Level Estimated
Tue 10:41:00 AM 24.5440 118.1277 North  Level Estimated
Tue 10:42:00 AM 24.5440 118.1277 North  Level Estimated
Tue 10:43:00 AM 24.5440 118.1277 North  Level Estimated
Tue 10:44:00 AM 24.5440 118.1277 North  Level Estimated
Tue 10:45:00 AM 24.5440 118.1277 North  Level Estimated

Login

Don't have an account? Register now (free) for customized features, flight alerts, and more!